sensor_id;sensor_type;location;lat;lon;timestamp;temperature;humidity
39665;DHT22;26679;50.872;4.332;2023-12-07T00:01:34;20.20;64.40
39665;DHT22;26679;50.872;4.332;2023-12-07T00:04:00;20.10;64.30
39665;DHT22;26679;50.872;4.332;2023-12-07T00:06:25;20.10;64.40
39665;DHT22;26679;50.872;4.332;2023-12-07T00:08:51;20.00;64.40
39665;DHT22;26679;50.872;4.332;2023-12-07T00:11:16;20.00;64.50
39665;DHT22;26679;50.872;4.332;2023-12-07T00:13:41;20.00;64.50
39665;DHT22;26679;50.872;4.332;2023-12-07T00:16:07;19.90;64.50
39665;DHT22;26679;50.872;4.332;2023-12-07T00:18:32;19.90;64.60
39665;DHT22;26679;50.872;4.332;2023-12-07T00:20:58;19.80;64.60
39665;DHT22;26679;50.872;4.332;2023-12-07T00:23:23;19.80;64.70
39665;DHT22;26679;50.872;4.332;2023-12-07T00:25:49;19.70;64.60
39665;DHT22;26679;50.872;4.332;2023-12-07T00:28:14;19.70;64.80
39665;DHT22;26679;50.872;4.332;2023-12-07T00:30:40;19.70;64.70
39665;DHT22;26679;50.872;4.332;2023-12-07T00:33:07;19.60;64.70
39665;DHT22;26679;50.872;4.332;2023-12-07T00:35:33;19.60;65.30
39665;DHT22;26679;50.872;4.332;2023-12-07T00:37:58;19.60;64.80
39665;DHT22;26679;50.872;4.332;2023-12-07T00:40:24;19.60;64.90
39665;DHT22;26679;50.872;4.332;2023-12-07T00:42:49;19.60;64.90
39665;DHT22;26679;50.872;4.332;2023-12-07T00:45:15;19.50;64.90
39665;DHT22;26679;50.872;4.332;2023-12-07T00:47:40;19.50;65.00
39665;DHT22;26679;50.872;4.332;2023-12-07T00:50:06;19.50;65.00
39665;DHT22;26679;50.872;4.332;2023-12-07T00:52:31;19.50;65.10
39665;DHT22;26679;50.872;4.332;2023-12-07T00:54:57;19.50;65.10
39665;DHT22;26679;50.872;4.332;2023-12-07T00:57:22;19.40;65.10
39665;DHT22;26679;50.872;4.332;2023-12-07T00:59:48;19.40;65.10
39665;DHT22;26679;50.872;4.332;2023-12-07T01:02:13;19.40;65.10
39665;DHT22;26679;50.872;4.332;2023-12-07T01:04:39;19.40;65.20
39665;DHT22;26679;50.872;4.332;2023-12-07T01:07:04;19.30;65.20
39665;DHT22;26679;50.872;4.332;2023-12-07T01:09:30;19.40;65.30
39665;DHT22;26679;50.872;4.332;2023-12-07T01:11:55;19.30;65.20
39665;DHT22;26679;50.872;4.332;2023-12-07T01:14:21;19.30;65.30
39665;DHT22;26679;50.872;4.332;2023-12-07T01:16:46;19.30;65.30
39665;DHT22;26679;50.872;4.332;2023-12-07T01:19:12;19.30;65.30
39665;DHT22;26679;50.872;4.332;2023-12-07T01:21:40;19.30;65.30
39665;DHT22;26679;50.872;4.332;2023-12-07T01:24:06;19.20;65.30
39665;DHT22;26679;50.872;4.332;2023-12-07T01:26:32;19.20;65.30
39665;DHT22;26679;50.872;4.332;2023-12-07T01:28:57;19.20;65.30
39665;DHT22;26679;50.872;4.332;2023-12-07T01:31:23;19.20;65.30
39665;DHT22;26679;50.872;4.332;2023-12-07T01:33:48;19.10;65.30
39665;DHT22;26679;50.872;4.332;2023-12-07T01:36:14;19.10;65.30
39665;DHT22;26679;50.872;4.332;2023-12-07T01:38:42;19.10;65.40
39665;DHT22;26679;50.872;4.332;2023-12-07T01:41:09;19.00;65.40
39665;DHT22;26679;50.872;4.332;2023-12-07T01:43:34;19.10;65.40
39665;DHT22;26679;50.872;4.332;2023-12-07T01:46:00;19.00;65.40
39665;DHT22;26679;50.872;4.332;2023-12-07T01:48:25;19.00;65.50
39665;DHT22;26679;50.872;4.332;2023-12-07T01:50:52;19.00;65.50
39665;DHT22;26679;50.872;4.332;2023-12-07T01:53:17;19.00;65.50
39665;DHT22;26679;50.872;4.332;2023-12-07T01:55:43;19.00;66.10
39665;DHT22;26679;50.872;4.332;2023-12-07T01:58:09;18.90;65.50
39665;DHT22;26679;50.872;4.332;2023-12-07T02:00:35;18.90;65.60
39665;DHT22;26679;50.872;4.332;2023-12-07T02:03:00;18.90;65.60
39665;DHT22;26679;50.872;4.332;2023-12-07T02:05:28;18.90;65.60
39665;DHT22;26679;50.872;4.332;2023-12-07T02:07:54;18.80;65.60
39665;DHT22;26679;50.872;4.332;2023-12-07T02:10:19;18.80;65.60
39665;DHT22;26679;50.872;4.332;2023-12-07T02:12:45;18.80;65.70
39665;DHT22;26679;50.872;4.332;2023-12-07T02:15:11;18.80;65.70
39665;DHT22;26679;50.872;4.332;2023-12-07T02:22:48;18.70;65.70
39665;DHT22;26679;50.872;4.332;2023-12-07T02:25:14;18.70;65.70
39665;DHT22;26679;50.872;4.332;2023-12-07T02:27:43;18.70;65.70
39665;DHT22;26679;50.872;4.332;2023-12-07T02:30:11;18.70;65.70
39665;DHT22;26679;50.872;4.332;2023-12-07T02:32:37;18.70;65.80
39665;DHT22;26679;50.872;4.332;2023-12-07T02:35:03;18.70;65.80
39665;DHT22;26679;50.872;4.332;2023-12-07T02:37:31;18.60;65.80
39665;DHT22;26679;50.872;4.332;2023-12-07T02:39:57;18.60;65.80
39665;DHT22;26679;50.872;4.332;2023-12-07T02:42:24;18.60;65.80
39665;DHT22;26679;50.872;4.332;2023-12-07T02:44:52;18.60;65.80
39665;DHT22;26679;50.872;4.332;2023-12-07T02:47:18;18.60;65.80
39665;DHT22;26679;50.872;4.332;2023-12-07T02:49:43;18.50;65.80
39665;DHT22;26679;50.872;4.332;2023-12-07T02:52:09;18.50;65.80
39665;DHT22;26679;50.872;4.332;2023-12-07T02:54:34;18.50;65.80
39665;DHT22;26679;50.872;4.332;2023-12-07T02:57:00;18.50;65.80
39665;DHT22;26679;50.872;4.332;2023-12-07T02:59:25;18.50;65.90
39665;DHT22;26679;50.872;4.332;2023-12-07T03:01:51;18.50;65.90
39665;DHT22;26679;50.872;4.332;2023-12-07T03:04:16;18.50;65.90
39665;DHT22;26679;50.872;4.332;2023-12-07T03:06:42;18.40;65.80
39665;DHT22;26679;50.872;4.332;2023-12-07T03:09:07;18.40;65.80
39665;DHT22;26679;50.872;4.332;2023-12-07T03:11:33;18.40;65.90
39665;DHT22;26679;50.872;4.332;2023-12-07T03:13:58;18.40;65.90
39665;DHT22;26679;50.872;4.332;2023-12-07T03:16:24;18.40;65.80
39665;DHT22;26679;50.872;4.332;2023-12-07T03:18:49;18.50;65.80
39665;DHT22;26679;50.872;4.332;2023-12-07T03:21:14;18.60;65.80
39665;DHT22;26679;50.872;4.332;2023-12-07T03:23:40;18.70;65.70
39665;DHT22;26679;50.872;4.332;2023-12-07T03:26:05;18.80;65.70
39665;DHT22;26679;50.872;4.332;2023-12-07T03:28:31;18.90;65.60
39665;DHT22;26679;50.872;4.332;2023-12-07T03:30:56;19.00;65.50
39665;DHT22;26679;50.872;4.332;2023-12-07T03:33:22;19.10;65.40
39665;DHT22;26679;50.872;4.332;2023-12-07T03:35:47;19.20;65.40
39665;DHT22;26679;50.872;4.332;2023-12-07T03:38:13;19.20;65.30
39665;DHT22;26679;50.872;4.332;2023-12-07T03:40:39;19.40;65.20
39665;DHT22;26679;50.872;4.332;2023-12-07T03:43:04;19.40;65.10
39665;DHT22;26679;50.872;4.332;2023-12-07T03:45:30;19.50;65.00
39665;DHT22;26679;50.872;4.332;2023-12-07T03:47:55;19.60;64.90
39665;DHT22;26679;50.872;4.332;2023-12-07T03:50:21;19.70;64.90
39665;DHT22;26679;50.872;4.332;2023-12-07T03:52:46;19.70;64.80
39665;DHT22;26679;50.872;4.332;2023-12-07T03:55:12;19.80;64.70
39665;DHT22;26679;50.872;4.332;2023-12-07T03:57:37;19.90;64.70
39665;DHT22;26679;50.872;4.332;2023-12-07T04:00:03;20.00;64.60
39665;DHT22;26679;50.872;4.332;2023-12-07T04:02:30;20.00;64.50
39665;DHT22;26679;50.872;4.332;2023-12-07T04:04:58;20.20;64.40
39665;DHT22;26679;50.872;4.332;2023-12-07T04:07:27;20.20;64.30
39665;DHT22;26679;50.872;4.332;2023-12-07T04:09:53;20.30;64.20
39665;DHT22;26679;50.872;4.332;2023-12-07T04:12:19;20.40;64.20
39665;DHT22;26679;50.872;4.332;2023-12-07T04:14:45;20.40;64.10
39665;DHT22;26679;50.872;4.332;2023-12-07T04:17:10;20.50;64.00
39665;DHT22;26679;50.872;4.332;2023-12-07T04:19:36;20.60;63.90
39665;DHT22;26679;50.872;4.332;2023-12-07T04:22:01;20.70;63.80
39665;DHT22;26679;50.872;4.332;2023-12-07T04:24:27;20.70;63.70
39665;DHT22;26679;50.872;4.332;2023-12-07T04:26:52;20.80;63.70
39665;DHT22;26679;50.872;4.332;2023-12-07T04:29:18;20.80;63.50
39665;DHT22;26679;50.872;4.332;2023-12-07T04:31:43;20.90;63.50
39665;DHT22;26679;50.872;4.332;2023-12-07T04:34:09;20.90;63.50
39665;DHT22;26679;50.872;4.332;2023-12-07T04:36:35;21.00;63.40
39665;DHT22;26679;50.872;4.332;2023-12-07T04:39:00;21.00;63.30
39665;DHT22;26679;50.872;4.332;2023-12-07T04:41:26;21.00;63.30
39665;DHT22;26679;50.872;4.332;2023-12-07T04:43:51;21.00;63.20
39665;DHT22;26679;50.872;4.332;2023-12-07T04:46:16;21.10;63.20
39665;DHT22;26679;50.872;4.332;2023-12-07T04:48:42;21.10;63.20
39665;DHT22;26679;50.872;4.332;2023-12-07T04:51:07;21.10;63.10
39665;DHT22;26679;50.872;4.332;2023-12-07T04:53:33;21.10;63.00
39665;DHT22;26679;50.872;4.332;2023-12-07T04:55:58;21.20;63.00
39665;DHT22;26679;50.872;4.332;2023-12-07T04:58:24;21.20;62.90
39665;DHT22;26679;50.872;4.332;2023-12-07T05:00:49;21.20;62.90
39665;DHT22;26679;50.872;4.332;2023-12-07T05:03:15;21.30;62.90
39665;DHT22;26679;50.872;4.332;2023-12-07T05:05:40;21.30;62.80
39665;DHT22;26679;50.872;4.332;2023-12-07T05:08:06;21.30;62.80
39665;DHT22;26679;50.872;4.332;2023-12-07T05:10:31;21.30;62.80
39665;DHT22;26679;50.872;4.332;2023-12-07T05:12:57;21.40;62.70
39665;DHT22;26679;50.872;4.332;2023-12-07T05:15:23;21.40;62.70
39665;DHT22;26679;50.872;4.332;2023-12-07T05:17:48;21.40;62.70
39665;DHT22;26679;50.872;4.332;2023-12-07T05:20:14;21.40;62.60
39665;DHT22;26679;50.872;4.332;2023-12-07T05:22:40;21.40;62.50
39665;DHT22;26679;50.872;4.332;2023-12-07T05:25:06;21.50;62.50
39665;DHT22;26679;50.872;4.332;2023-12-07T05:27:31;21.50;62.50
39665;DHT22;26679;50.872;4.332;2023-12-07T05:29:57;21.50;62.40
39665;DHT22;26679;50.872;4.332;2023-12-07T05:32:22;21.50;62.40
39665;DHT22;26679;50.872;4.332;2023-12-07T05:34:48;21.50;62.30
39665;DHT22;26679;50.872;4.332;2023-12-07T05:37:13;21.60;62.40
39665;DHT22;26679;50.872;4.332;2023-12-07T05:39:39;21.60;62.30
39665;DHT22;26679;50.872;4.332;2023-12-07T05:42:05;21.60;62.20
39665;DHT22;26679;50.872;4.332;2023-12-07T05:44:30;21.60;62.20
39665;DHT22;26679;50.872;4.332;2023-12-07T05:46:56;21.60;62.10
39665;DHT22;26679;50.872;4.332;2023-12-07T05:49:22;21.60;62.10
39665;DHT22;26679;50.872;4.332;2023-12-07T05:51:48;21.60;62.00
39665;DHT22;26679;50.872;4.332;2023-12-07T05:54:14;21.70;62.10
39665;DHT22;26679;50.872;4.332;2023-12-07T05:56:40;21.70;62.00
39665;DHT22;26679;50.872;4.332;2023-12-07T05:59:06;21.70;62.00
39665;DHT22;26679;50.872;4.332;2023-12-07T06:01:31;21.70;62.00
39665;DHT22;26679;50.872;4.332;2023-12-07T06:03:57;21.70;62.00
39665;DHT22;26679;50.872;4.332;2023-12-07T06:06:23;21.70;62.10
39665;DHT22;26679;50.872;4.332;2023-12-07T06:08:48;21.80;62.00
39665;DHT22;26679;50.872;4.332;2023-12-07T06:11:14;21.80;62.00
39665;DHT22;26679;50.872;4.332;2023-12-07T06:13:40;21.80;62.00
39665;DHT22;26679;50.872;4.332;2023-12-07T06:16:06;21.80;62.00
39665;DHT22;26679;50.872;4.332;2023-12-07T06:18:31;21.80;61.90
39665;DHT22;26679;50.872;4.332;2023-12-07T06:20:57;21.80;62.00
39665;DHT22;26679;50.872;4.332;2023-12-07T06:23:22;21.80;61.90
39665;DHT22;26679;50.872;4.332;2023-12-07T06:25:48;21.80;61.90
39665;DHT22;26679;50.872;4.332;2023-12-07T06:28:13;21.80;61.90
39665;DHT22;26679;50.872;4.332;2023-12-07T06:30:38;21.80;61.90
39665;DHT22;26679;50.872;4.332;2023-12-07T06:33:04;21.80;61.90
39665;DHT22;26679;50.872;4.332;2023-12-07T06:35:29;21.80;61.90
39665;DHT22;26679;50.872;4.332;2023-12-07T06:37:56;21.80;61.80
39665;DHT22;26679;50.872;4.332;2023-12-07T06:40:21;21.80;61.80
39665;DHT22;26679;50.872;4.332;2023-12-07T06:42:47;21.80;61.80
39665;DHT22;26679;50.872;4.332;2023-12-07T06:45:13;21.80;61.80
39665;DHT22;26679;50.872;4.332;2023-12-07T06:47:39;21.80;61.80
39665;DHT22;26679;50.872;4.332;2023-12-07T06:50:05;21.80;61.90
39665;DHT22;26679;50.872;4.332;2023-12-07T06:52:38;21.80;62.00
39665;DHT22;26679;50.872;4.332;2023-12-07T06:55:04;21.80;62.00
39665;DHT22;26679;50.872;4.332;2023-12-07T06:57:30;21.90;62.10
39665;DHT22;26679;50.872;4.332;2023-12-07T06:59:55;21.90;62.10
39665;DHT22;26679;50.872;4.332;2023-12-07T07:02:21;21.90;62.10
39665;DHT22;26679;50.872;4.332;2023-12-07T07:04:48;21.90;62.10
39665;DHT22;26679;50.872;4.332;2023-12-07T07:07:14;21.90;62.20
39665;DHT22;26679;50.872;4.332;2023-12-07T07:09:40;21.90;62.20
39665;DHT22;26679;50.872;4.332;2023-12-07T07:12:05;22.00;62.20
39665;DHT22;26679;50.872;4.332;2023-12-07T07:14:31;22.00;62.20
39665;DHT22;26679;50.872;4.332;2023-12-07T07:16:56;21.90;62.40
39665;DHT22;26679;50.872;4.332;2023-12-07T07:19:22;22.00;62.60
39665;DHT22;26679;50.872;4.332;2023-12-07T07:21:47;22.00;62.90
39665;DHT22;26679;50.872;4.332;2023-12-07T07:24:13;21.90;63.00
39665;DHT22;26679;50.872;4.332;2023-12-07T07:26:38;21.90;63.30
39665;DHT22;26679;50.872;4.332;2023-12-07T07:29:04;21.90;63.50
39665;DHT22;26679;50.872;4.332;2023-12-07T07:31:29;21.80;63.60
39665;DHT22;26679;50.872;4.332;2023-12-07T07:33:55;21.80;63.80
39665;DHT22;26679;50.872;4.332;2023-12-07T07:36:21;21.80;63.90
39665;DHT22;26679;50.872;4.332;2023-12-07T07:38:46;21.80;64.00
39665;DHT22;26679;50.872;4.332;2023-12-07T07:41:13;21.80;64.00
39665;DHT22;26679;50.872;4.332;2023-12-07T07:43:39;21.80;64.00
39665;DHT22;26679;50.872;4.332;2023-12-07T07:46:05;21.80;64.10
39665;DHT22;26679;50.872;4.332;2023-12-07T07:48:31;21.80;64.10
39665;DHT22;26679;50.872;4.332;2023-12-07T07:50:56;21.80;64.10
39665;DHT22;26679;50.872;4.332;2023-12-07T07:53:22;21.80;64.10
39665;DHT22;26679;50.872;4.332;2023-12-07T07:55:47;21.80;64.10
39665;DHT22;26679;50.872;4.332;2023-12-07T07:58:13;21.80;64.10
39665;DHT22;26679;50.872;4.332;2023-12-07T08:00:38;21.80;64.00
39665;DHT22;26679;50.872;4.332;2023-12-07T08:03:04;21.90;64.00
39665;DHT22;26679;50.872;4.332;2023-12-07T08:05:30;21.90;64.00
39665;DHT22;26679;50.872;4.332;2023-12-07T08:07:55;22.00;64.00
39665;DHT22;26679;50.872;4.332;2023-12-07T08:10:21;22.00;64.00
39665;DHT22;26679;50.872;4.332;2023-12-07T08:12:46;22.00;64.00
39665;DHT22;26679;50.872;4.332;2023-12-07T08:15:12;22.10;64.00
39665;DHT22;26679;50.872;4.332;2023-12-07T08:17:39;22.10;64.10
39665;DHT22;26679;50.872;4.332;2023-12-07T08:20:09;22.00;64.00
39665;DHT22;26679;50.872;4.332;2023-12-07T08:22:36;22.10;64.10
39665;DHT22;26679;50.872;4.332;2023-12-07T08:25:02;22.10;64.00
39665;DHT22;26679;50.872;4.332;2023-12-07T08:27:27;22.10;64.00
39665;DHT22;26679;50.872;4.332;2023-12-07T08:29:53;22.20;63.90
39665;DHT22;26679;50.872;4.332;2023-12-07T08:32:18;22.20;63.70
39665;DHT22;26679;50.872;4.332;2023-12-07T08:34:45;22.20;63.70
39665;DHT22;26679;50.872;4.332;2023-12-07T08:37:11;22.20;63.50
39665;DHT22;26679;50.872;4.332;2023-12-07T08:39:36;22.30;63.50
39665;DHT22;26679;50.872;4.332;2023-12-07T08:42:02;22.30;63.40
39665;DHT22;26679;50.872;4.332;2023-12-07T08:44:27;22.30;63.30
39665;DHT22;26679;50.872;4.332;2023-12-07T08:46:53;22.40;63.20
39665;DHT22;26679;50.872;4.332;2023-12-07T08:49:19;22.40;63.10
39665;DHT22;26679;50.872;4.332;2023-12-07T08:51:45;22.40;63.00
39665;DHT22;26679;50.872;4.332;2023-12-07T08:54:10;22.40;63.00
39665;DHT22;26679;50.872;4.332;2023-12-07T08:56:38;22.40;62.90
39665;DHT22;26679;50.872;4.332;2023-12-07T08:59:03;22.50;62.90
39665;DHT22;26679;50.872;4.332;2023-12-07T09:01:29;22.50;62.90
39665;DHT22;26679;50.872;4.332;2023-12-07T09:03:58;22.50;62.80
39665;DHT22;26679;50.872;4.332;2023-12-07T09:06:23;22.50;62.70
39665;DHT22;26679;50.872;4.332;2023-12-07T09:08:49;22.60;62.60
39665;DHT22;26679;50.872;4.332;2023-12-07T09:11:14;22.60;62.50
39665;DHT22;26679;50.872;4.332;2023-12-07T09:13:40;22.60;62.30
39665;DHT22;26679;50.872;4.332;2023-12-07T09:16:05;22.70;62.40
39665;DHT22;26679;50.872;4.332;2023-12-07T09:18:31;22.70;62.30
39665;DHT22;26679;50.872;4.332;2023-12-07T09:20:56;22.70;62.30
39665;DHT22;26679;50.872;4.332;2023-12-07T09:23:22;22.70;62.20
39665;DHT22;26679;50.872;4.332;2023-12-07T09:25:48;22.70;62.20
39665;DHT22;26679;50.872;4.332;2023-12-07T09:28:13;22.80;62.10
39665;DHT22;26679;50.872;4.332;2023-12-07T09:30:39;22.80;62.00
39665;DHT22;26679;50.872;4.332;2023-12-07T09:33:04;22.80;61.90
39665;DHT22;26679;50.872;4.332;2023-12-07T09:35:30;22.90;61.80
39665;DHT22;26679;50.872;4.332;2023-12-07T09:37:55;22.90;61.80
39665;DHT22;26679;50.872;4.332;2023-12-07T09:40:21;22.90;61.70
39665;DHT22;26679;50.872;4.332;2023-12-07T09:42:47;22.90;61.70
39665;DHT22;26679;50.872;4.332;2023-12-07T09:45:13;22.90;61.80
39665;DHT22;26679;50.872;4.332;2023-12-07T09:47:43;22.90;61.90
39665;DHT22;26679;50.872;4.332;2023-12-07T09:50:10;22.90;61.90
39665;DHT22;26679;50.872;4.332;2023-12-07T09:52:37;23.00;62.00
39665;DHT22;26679;50.872;4.332;2023-12-07T09:55:03;23.00;61.90
39665;DHT22;26679;50.872;4.332;2023-12-07T09:57:29;23.00;61.90
39665;DHT22;26679;50.872;4.332;2023-12-07T09:59:55;23.00;61.90
39665;DHT22;26679;50.872;4.332;2023-12-07T10:02:21;23.00;61.80
39665;DHT22;26679;50.872;4.332;2023-12-07T10:04:46;23.00;61.80
39665;DHT22;26679;50.872;4.332;2023-12-07T10:07:13;23.00;61.70
39665;DHT22;26679;50.872;4.332;2023-12-07T10:09:39;23.00;61.60
39665;DHT22;26679;50.872;4.332;2023-12-07T10:12:05;23.10;62.20
39665;DHT22;26679;50.872;4.332;2023-12-07T10:14:31;23.10;61.60
39665;DHT22;26679;50.872;4.332;2023-12-07T10:16:57;23.10;61.60
39665;DHT22;26679;50.872;4.332;2023-12-07T10:19:22;23.10;61.50
39665;DHT22;26679;50.872;4.332;2023-12-07T10:21:48;23.10;61.50
39665;DHT22;26679;50.872;4.332;2023-12-07T10:24:15;23.20;61.60
39665;DHT22;26679;50.872;4.332;2023-12-07T10:26:41;23.20;61.70
39665;DHT22;26679;50.872;4.332;2023-12-07T10:29:08;23.20;61.70
39665;DHT22;26679;50.872;4.332;2023-12-07T10:31:33;23.20;61.60
39665;DHT22;26679;50.872;4.332;2023-12-07T10:33:59;23.20;61.70
39665;DHT22;26679;50.872;4.332;2023-12-07T10:36:25;23.20;61.70
39665;DHT22;26679;50.872;4.332;2023-12-07T10:38:51;23.20;61.70
39665;DHT22;26679;50.872;4.332;2023-12-07T10:41:16;23.20;61.80
39665;DHT22;26679;50.872;4.332;2023-12-07T10:43:43;23.30;61.90
39665;DHT22;26679;50.872;4.332;2023-12-07T10:46:10;23.30;61.90
39665;DHT22;26679;50.872;4.332;2023-12-07T10:48:40;23.30;62.00
39665;DHT22;26679;50.872;4.332;2023-12-07T10:51:07;23.30;62.10
39665;DHT22;26679;50.872;4.332;2023-12-07T10:53:42;23.30;62.20
39665;DHT22;26679;50.872;4.332;2023-12-07T10:56:16;23.30;62.20
39665;DHT22;26679;50.872;4.332;2023-12-07T10:58:41;23.30;62.20
39665;DHT22;26679;50.872;4.332;2023-12-07T11:01:07;23.30;62.20
39665;DHT22;26679;50.872;4.332;2023-12-07T11:03:35;23.40;62.30
39665;DHT22;26679;50.872;4.332;2023-12-07T11:06:00;23.40;62.20
39665;DHT22;26679;50.872;4.332;2023-12-07T11:13:29;23.50;62.10
39665;DHT22;26679;50.872;4.332;2023-12-07T11:15:55;23.50;62.10
39665;DHT22;26679;50.872;4.332;2023-12-07T11:18:22;23.50;62.10
39665;DHT22;26679;50.872;4.332;2023-12-07T11:20:49;23.60;62.10
39665;DHT22;26679;50.872;4.332;2023-12-07T11:23:16;23.60;62.00
39665;DHT22;26679;50.872;4.332;2023-12-07T11:25:44;23.70;62.00
39665;DHT22;26679;50.872;4.332;2023-12-07T11:28:10;23.70;61.90
39665;DHT22;26679;50.872;4.332;2023-12-07T11:30:36;23.70;61.90
39665;DHT22;26679;50.872;4.332;2023-12-07T11:33:05;23.70;61.80
39665;DHT22;26679;50.872;4.332;2023-12-07T11:35:31;23.70;62.40
39665;DHT22;26679;50.872;4.332;2023-12-07T11:40:26;23.70;61.80
39665;DHT22;26679;50.872;4.332;2023-12-07T11:42:52;23.70;61.80
39665;DHT22;26679;50.872;4.332;2023-12-07T11:45:35;23.70;61.70
39665;DHT22;26679;50.872;4.332;2023-12-07T11:48:07;23.70;61.70
39665;DHT22;26679;50.872;4.332;2023-12-07T11:50:33;23.80;61.80
39665;DHT22;26679;50.872;4.332;2023-12-07T11:52:58;23.70;61.70
39665;DHT22;26679;50.872;4.332;2023-12-07T11:55:24;23.70;61.80
39665;DHT22;26679;50.872;4.332;2023-12-07T11:57:51;23.70;61.80
39665;DHT22;26679;50.872;4.332;2023-12-07T12:00:17;23.60;61.80
39665;DHT22;26679;50.872;4.332;2023-12-07T12:02:42;23.60;61.80
39665;DHT22;26679;50.872;4.332;2023-12-07T12:05:09;23.60;61.80
39665;DHT22;26679;50.872;4.332;2023-12-07T12:07:35;23.60;61.70
39665;DHT22;26679;50.872;4.332;2023-12-07T12:10:03;23.60;61.70
39665;DHT22;26679;50.872;4.332;2023-12-07T12:12:29;23.60;61.70
39665;DHT22;26679;50.872;4.332;2023-12-07T12:15:00;23.60;61.80
39665;DHT22;26679;50.872;4.332;2023-12-07T12:17:25;23.50;61.80
39665;DHT22;26679;50.872;4.332;2023-12-07T12:19:51;23.50;61.90
39665;DHT22;26679;50.872;4.332;2023-12-07T12:22:20;23.50;61.90
39665;DHT22;26679;50.872;4.332;2023-12-07T12:24:46;23.40;61.90
39665;DHT22;26679;50.872;4.332;2023-12-07T12:27:11;23.40;61.80
39665;DHT22;26679;50.872;4.332;2023-12-07T12:29:38;23.40;61.80
39665;DHT22;26679;50.872;4.332;2023-12-07T12:32:03;23.40;61.70
39665;DHT22;26679;50.872;4.332;2023-12-07T12:34:32;23.40;61.70
39665;DHT22;26679;50.872;4.332;2023-12-07T12:36:57;23.30;61.70
39665;DHT22;26679;50.872;4.332;2023-12-07T12:39:27;23.30;61.80
39665;DHT22;26679;50.872;4.332;2023-12-07T12:41:56;23.30;61.90
39665;DHT22;26679;50.872;4.332;2023-12-07T12:44:23;23.20;61.90
39665;DHT22;26679;50.872;4.332;2023-12-07T12:46:48;23.20;62.10
39665;DHT22;26679;50.872;4.332;2023-12-07T12:49:14;23.20;62.10
39665;DHT22;26679;50.872;4.332;2023-12-07T12:51:40;23.20;62.20
39665;DHT22;26679;50.872;4.332;2023-12-07T12:54:05;23.20;62.30
39665;DHT22;26679;50.872;4.332;2023-12-07T12:56:31;23.20;62.30
39665;DHT22;26679;50.872;4.332;2023-12-07T12:58:57;23.20;62.20
39665;DHT22;26679;50.872;4.332;2023-12-07T13:01:24;23.20;62.10
39665;DHT22;26679;50.872;4.332;2023-12-07T13:03:50;23.30;62.00
39665;DHT22;26679;50.872;4.332;2023-12-07T13:06:15;23.30;62.00
39665;DHT22;26679;50.872;4.332;2023-12-07T13:08:44;23.30;61.80
39665;DHT22;26679;50.872;4.332;2023-12-07T13:11:19;23.30;61.70
39665;DHT22;26679;50.872;4.332;2023-12-07T13:13:47;23.30;61.70
39665;DHT22;26679;50.872;4.332;2023-12-07T13:16:13;23.30;61.80
39665;DHT22;26679;50.872;4.332;2023-12-07T13:18:40;23.30;61.90
39665;DHT22;26679;50.872;4.332;2023-12-07T13:21:05;23.30;62.00
39665;DHT22;26679;50.872;4.332;2023-12-07T13:23:31;23.20;62.10
39665;DHT22;26679;50.872;4.332;2023-12-07T13:25:56;23.20;62.10
39665;DHT22;26679;50.872;4.332;2023-12-07T13:28:22;23.20;62.20
39665;DHT22;26679;50.872;4.332;2023-12-07T13:30:48;23.20;62.30
39665;DHT22;26679;50.872;4.332;2023-12-07T13:33:14;23.10;62.20
39665;DHT22;26679;50.872;4.332;2023-12-07T13:35:39;23.10;62.30
39665;DHT22;26679;50.872;4.332;2023-12-07T13:40:34;23.10;62.30
39665;DHT22;26679;50.872;4.332;2023-12-07T13:43:02;23.10;62.30
39665;DHT22;26679;50.872;4.332;2023-12-07T13:45:28;23.00;62.20
39665;DHT22;26679;50.872;4.332;2023-12-07T13:47:53;23.10;62.20
39665;DHT22;26679;50.872;4.332;2023-12-07T13:50:19;23.10;62.00
39665;DHT22;26679;50.872;4.332;2023-12-07T13:52:44;23.10;61.90
39665;DHT22;26679;50.872;4.332;2023-12-07T13:55:10;23.10;61.90
39665;DHT22;26679;50.872;4.332;2023-12-07T13:57:35;23.10;62.00
39665;DHT22;26679;50.872;4.332;2023-12-07T14:00:01;23.10;62.00
39665;DHT22;26679;50.872;4.332;2023-12-07T14:02:27;23.10;62.00
39665;DHT22;26679;50.872;4.332;2023-12-07T14:04:54;23.10;62.00
39665;DHT22;26679;50.872;4.332;2023-12-07T14:07:20;23.10;62.00
39665;DHT22;26679;50.872;4.332;2023-12-07T14:09:46;23.10;61.90
39665;DHT22;26679;50.872;4.332;2023-12-07T14:12:12;23.10;61.80
39665;DHT22;26679;50.872;4.332;2023-12-07T14:14:40;23.10;61.80
39665;DHT22;26679;50.872;4.332;2023-12-07T14:17:05;23.10;61.70
39665;DHT22;26679;50.872;4.332;2023-12-07T14:19:31;23.10;61.60
39665;DHT22;26679;50.872;4.332;2023-12-07T14:21:57;23.10;61.50
39665;DHT22;26679;50.872;4.332;2023-12-07T14:24:23;23.10;61.50
39665;DHT22;26679;50.872;4.332;2023-12-07T14:26:49;23.10;61.40
39665;DHT22;26679;50.872;4.332;2023-12-07T14:29:14;23.10;61.50
39665;DHT22;26679;50.872;4.332;2023-12-07T14:31:46;23.10;61.60
39665;DHT22;26679;50.872;4.332;2023-12-07T14:34:11;23.10;61.70
39665;DHT22;26679;50.872;4.332;2023-12-07T14:36:39;23.00;61.80
39665;DHT22;26679;50.872;4.332;2023-12-07T14:39:07;23.00;61.90
39665;DHT22;26679;50.872;4.332;2023-12-07T14:41:32;23.00;61.90
39665;DHT22;26679;50.872;4.332;2023-12-07T14:43:58;23.00;62.00
39665;DHT22;26679;50.872;4.332;2023-12-07T14:46:23;23.00;62.00
39665;DHT22;26679;50.872;4.332;2023-12-07T14:48:49;23.00;62.10
39665;DHT22;26679;50.872;4.332;2023-12-07T14:51:18;23.00;62.10
39665;DHT22;26679;50.872;4.332;2023-12-07T14:53:46;23.00;62.10
39665;DHT22;26679;50.872;4.332;2023-12-07T14:56:11;23.00;62.00
39665;DHT22;26679;50.872;4.332;2023-12-07T14:58:37;23.00;62.00
39665;DHT22;26679;50.872;4.332;2023-12-07T15:01:08;23.00;61.90
39665;DHT22;26679;50.872;4.332;2023-12-07T15:03:33;23.00;61.90
39665;DHT22;26679;50.872;4.332;2023-12-07T15:05:59;23.00;61.80
39665;DHT22;26679;50.872;4.332;2023-12-07T15:08:25;23.00;61.70
39665;DHT22;26679;50.872;4.332;2023-12-07T15:10:50;23.00;61.70
39665;DHT22;26679;50.872;4.332;2023-12-07T15:13:18;23.00;61.60
39665;DHT22;26679;50.872;4.332;2023-12-07T15:15:44;23.00;61.60
39665;DHT22;26679;50.872;4.332;2023-12-07T15:18:10;23.00;61.50
39665;DHT22;26679;50.872;4.332;2023-12-07T15:20:35;23.00;61.40
39665;DHT22;26679;50.872;4.332;2023-12-07T15:23:04;23.00;61.30
39665;DHT22;26679;50.872;4.332;2023-12-07T15:25:29;23.00;61.30
39665;DHT22;26679;50.872;4.332;2023-12-07T15:27:55;23.00;61.20
39665;DHT22;26679;50.872;4.332;2023-12-07T15:30:24;22.90;61.10
39665;DHT22;26679;50.872;4.332;2023-12-07T15:32:51;23.00;61.10
39665;DHT22;26679;50.872;4.332;2023-12-07T15:35:16;22.90;61.10
39665;DHT22;26679;50.872;4.332;2023-12-07T15:37:42;23.00;61.10